createdAt,value
2022-08-17T00:02:26.275Z,3.60
2022-08-17T00:04:54.248Z,4.87
2022-08-17T00:07:20.899Z,4.30
2022-08-17T00:09:47.692Z,6.37
2022-08-17T00:12:43.135Z,4.63
2022-08-17T00:15:01.358Z,6.83
2022-08-17T00:17:28.010Z,4.37
2022-08-17T00:19:54.703Z,9.77
2022-08-17T00:22:35.241Z,5.13
2022-08-17T00:25:09.103Z,5.67
2022-08-17T00:27:37.002Z,6.13
2022-08-17T00:30:06.790Z,4.57
2022-08-17T00:33:14.625Z,3.10
2022-08-17T00:35:41.855Z,3.07
2022-08-17T00:38:10.020Z,3.60
2022-08-17T00:40:59.004Z,5.87
2022-08-17T00:43:32.803Z,3.70
2022-08-17T00:46:03.075Z,3.93
2022-08-17T00:48:30.984Z,3.90
2022-08-17T00:51:15.069Z,3.97
2022-08-17T00:53:51.414Z,4.00
2022-08-17T00:56:28.526Z,6.47
2022-08-17T00:58:55.698Z,4.97
2022-08-17T01:01:23.315Z,4.53
2022-08-17T01:03:53.396Z,4.73
2022-08-17T01:06:24.272Z,3.70
2022-08-17T01:08:57.450Z,6.73
2022-08-17T01:11:25.408Z,5.07
2022-08-17T01:13:52.125Z,4.53
2022-08-17T01:16:30.999Z,3.90
2022-08-17T01:19:01.389Z,4.93
2022-08-17T01:21:39.903Z,6.77
2022-08-17T01:24:07.338Z,5.33
2022-08-17T01:26:35.598Z,4.23
2022-08-17T01:29:04.700Z,3.50
2022-08-17T01:31:45.708Z,4.80
2022-08-17T01:34:14.791Z,5.27
2022-08-17T01:36:44.689Z,6.47
2022-08-17T01:39:31.694Z,4.13
2022-08-17T01:42:13.511Z,3.33
2022-08-17T01:44:41.119Z,6.50
2022-08-17T01:47:07.845Z,4.37
2022-08-17T01:49:34.581Z,3.47
2022-08-17T01:52:08.270Z,3.63
2022-08-17T01:54:37.077Z,2.77
2022-08-17T01:57:04.546Z,4.27
2022-08-17T01:59:31.204Z,4.20
2022-08-17T02:01:58.099Z,3.10
2022-08-17T02:04:24.894Z,3.53
2022-08-17T02:06:53.400Z,3.20
2022-08-17T02:09:25.666Z,7.13
2022-08-17T02:11:56.217Z,3.83
2022-08-17T02:14:24.532Z,5.17
2022-08-17T02:16:51.919Z,3.17
2022-08-17T02:19:19.163Z,4.87
2022-08-17T02:21:49.511Z,3.03
2022-08-17T02:25:00.026Z,3.47
2022-08-17T02:27:08.244Z,8.70
2022-08-17T02:29:35.064Z,3.40
2022-08-17T02:32:01.978Z,6.67
2022-08-17T02:34:30.036Z,4.57
2022-08-17T02:36:56.750Z,5.50
2022-08-17T02:39:23.539Z,6.47
2022-08-17T02:41:50.458Z,3.90
2022-08-17T02:44:39.075Z,4.03
2022-08-17T02:47:04.220Z,3.80
2022-08-17T02:49:31.107Z,5.07
2022-08-17T02:51:58.951Z,4.33
2022-08-17T02:54:39.874Z,10.40
2022-08-17T02:57:09.256Z,7.80
2022-08-17T02:59:35.915Z,8.20
2022-08-17T03:02:11.812Z,5.30
2022-08-17T03:04:38.715Z,6.80
2022-08-17T03:07:06.754Z,6.67
2022-08-17T03:09:33.626Z,4.53
2022-08-17T03:12:20.489Z,5.87
2022-08-17T03:14:47.105Z,6.27
2022-08-17T03:17:17.027Z,8.80
2022-08-17T03:19:44.671Z,8.67
2022-08-17T03:22:34.745Z,10.33
2022-08-17T03:24:58.551Z,9.87
2022-08-17T03:27:25.246Z,4.77
2022-08-17T03:29:51.926Z,4.60
2022-08-17T03:32:20.661Z,4.57
2022-08-17T03:34:47.767Z,5.73
2022-08-17T03:37:14.814Z,7.20
2022-08-17T03:39:41.767Z,4.77
2022-08-17T03:42:32.448Z,4.20
2022-08-17T03:45:00.841Z,4.93
2022-08-17T03:47:46.233Z,7.10
2022-08-17T03:50:32.556Z,9.03
2022-08-17T03:53:17.571Z,8.03
2022-08-17T03:56:03.034Z,6.17
2022-08-17T03:58:29.730Z,6.57
2022-08-17T04:00:56.407Z,5.73
2022-08-17T04:03:23.047Z,4.70
2022-08-17T04:05:49.719Z,6.33
2022-08-17T04:08:16.358Z,4.17
2022-08-17T04:10:45.238Z,7.10
2022-08-17T04:13:12.674Z,8.57
2022-08-17T04:15:39.523Z,7.87
2022-08-17T04:18:07.524Z,6.90
2022-08-17T04:20:34.798Z,7.33
2022-08-17T04:23:11.313Z,5.67
2022-08-17T04:25:42.183Z,12.10
2022-08-17T04:28:16.294Z,11.93
2022-08-17T04:30:45.794Z,9.27
2022-08-17T04:33:21.877Z,11.50
2022-08-17T04:35:51.644Z,10.20
2022-08-17T04:38:22.206Z,13.87
2022-08-17T04:41:07.846Z,11.07
2022-08-17T04:43:35.862Z,8.13
2022-08-17T04:46:05.625Z,9.97
2022-08-17T04:48:37.882Z,9.83
2022-08-17T04:51:13.861Z,10.63
2022-08-17T04:53:44.063Z,17.63
2022-08-17T04:56:16.750Z,16.40
2022-08-17T04:58:47.895Z,12.83
2022-08-17T05:01:23.245Z,14.47
2022-08-17T05:03:56.243Z,10.23
2022-08-17T05:06:23.783Z,17.70
2022-08-17T05:08:50.491Z,12.23
2022-08-17T05:11:17.466Z,8.83
2022-08-17T05:13:44.820Z,11.63
2022-08-17T05:16:12.242Z,11.33
2022-08-17T05:18:39.179Z,10.40
2022-08-17T05:21:07.082Z,13.43
2022-08-17T05:23:41.866Z,10.30
2022-08-17T05:26:26.270Z,10.70
2022-08-17T05:28:57.016Z,9.13
2022-08-17T05:31:25.233Z,13.70
2022-08-17T05:33:52.728Z,18.13
2022-08-17T05:36:42.079Z,19.83
2022-08-17T05:39:06.640Z,15.17
2022-08-17T05:41:33.295Z,11.23
2022-08-17T05:43:59.903Z,15.17
2022-08-17T05:46:37.441Z,21.13
2022-08-17T05:49:08.092Z,11.67
2022-08-17T05:51:56.561Z,10.00
2022-08-17T05:55:01.311Z,6.77
2022-08-17T05:57:43.641Z,6.43
2022-08-17T06:00:42.073Z,6.80
2022-08-17T06:03:24.073Z,8.97
2022-08-17T06:06:15.141Z,12.70
2022-08-17T06:09:05.279Z,12.70
2022-08-17T06:11:58.766Z,9.47
2022-08-17T06:14:43.548Z,8.60
2022-08-17T06:17:16.771Z,9.90
2022-08-17T06:19:52.910Z,13.00
2022-08-17T06:22:23.482Z,8.97
2022-08-17T06:25:13.743Z,13.13
2022-08-17T06:27:41.384Z,14.37
2022-08-17T06:30:41.411Z,11.87
2022-08-17T06:33:36.794Z,13.77
2022-08-17T06:36:15.932Z,9.10
2022-08-17T06:38:58.788Z,15.90
2022-08-17T06:41:44.760Z,17.77
2022-08-17T06:44:43.682Z,10.37
2022-08-17T06:47:28.167Z,9.20
2022-08-17T06:50:15.760Z,14.13
2022-08-17T06:52:53.968Z,15.80
2022-08-17T06:55:38.299Z,13.67
2022-08-17T06:58:16.245Z,10.17
2022-08-17T07:00:47.274Z,11.53
2022-08-17T07:03:29.091Z,8.67
2022-08-17T07:06:05.710Z,9.10
2022-08-17T07:09:01.936Z,11.03
2022-08-17T07:11:42.043Z,7.07
2022-08-17T07:14:31.769Z,10.07
2022-08-17T07:17:03.040Z,9.37
2022-08-17T07:19:33.187Z,13.90
2022-08-17T07:22:15.589Z,6.60
2022-08-17T07:24:53.173Z,5.57
2022-08-17T07:27:21.372Z,6.13
2022-08-17T07:29:57.078Z,6.07
2022-08-17T07:32:31.828Z,14.20
2022-08-17T07:35:23.102Z,9.63
2022-08-17T07:38:24.388Z,5.60
2022-08-17T07:41:13.947Z,6.77
2022-08-17T07:43:40.598Z,11.67
2022-08-17T07:46:54.835Z,4.77
2022-08-17T07:49:35.431Z,6.73
2022-08-17T07:52:47.416Z,9.10
2022-08-17T07:54:59.428Z,4.80
2022-08-17T07:57:36.192Z,6.17
2022-08-17T08:00:03.175Z,6.97
2022-08-17T08:02:40.312Z,7.33
2022-08-17T08:05:13.967Z,5.03
2022-08-17T08:08:28.275Z,4.40
2022-08-17T08:11:02.173Z,9.73
2022-08-17T08:13:30.316Z,8.30
2022-08-17T08:16:17.517Z,5.83
2022-08-17T08:18:55.517Z,4.07
2022-08-17T08:21:41.898Z,5.73
2022-08-17T08:24:42.897Z,5.60
2022-08-17T08:27:18.245Z,5.50
2022-08-17T08:30:04.998Z,6.07
2022-08-17T08:33:09.269Z,5.63
2022-08-17T08:35:56.638Z,6.03
2022-08-17T08:38:53.692Z,4.37
2022-08-17T08:41:25.543Z,4.70
2022-08-17T08:43:55.127Z,4.63
2022-08-17T08:46:40.695Z,5.57
2022-08-17T08:49:59.553Z,3.10
2022-08-17T08:52:40.518Z,6.00
2022-08-17T08:55:07.834Z,3.47
2022-08-17T08:57:40.697Z,5.80
2022-08-17T09:00:25.882Z,5.07
2022-08-17T09:03:36.713Z,5.50
2022-08-17T09:06:58.026Z,6.70
2022-08-17T09:09:43.269Z,11.23
2022-08-17T09:12:21.362Z,5.20
2022-08-17T09:15:13.221Z,4.40
2022-08-17T09:19:02.816Z,3.70
2022-08-17T09:21:07.728Z,5.97
2022-08-17T09:24:12.703Z,2.50
2022-08-17T09:26:54.768Z,4.83
2022-08-17T09:29:25.569Z,4.90
2022-08-17T09:32:04.010Z,3.70
2022-08-17T09:34:38.738Z,5.17
2022-08-17T09:37:19.298Z,4.53
2022-08-17T09:39:55.685Z,5.60
2022-08-17T09:42:49.863Z,14.80
2022-08-17T09:45:30.268Z,4.93
2022-08-17T09:48:20.789Z,5.50
2022-08-17T09:51:04.818Z,3.50
2022-08-17T09:53:35.904Z,3.87
2022-08-17T09:56:08.902Z,3.57
2022-08-17T09:58:50.931Z,8.80
2022-08-17T10:01:39.887Z,3.07
2022-08-17T10:04:20.103Z,4.93
2022-08-17T10:06:58.883Z,4.70
2022-08-17T10:09:33.278Z,4.13
2022-08-17T10:12:17.678Z,4.63
2022-08-17T10:15:09.485Z,8.47
2022-08-17T10:17:59.392Z,4.23
2022-08-17T10:20:46.612Z,7.43
2022-08-17T10:23:46.813Z,5.23
2022-08-17T10:26:24.004Z,5.10
2022-08-17T10:29:00.759Z,4.23
2022-08-17T10:31:38.417Z,7.53
2022-08-17T10:34:23.567Z,3.67
2022-08-17T10:37:11.170Z,4.70
2022-08-17T10:39:52.214Z,9.50
2022-08-17T10:42:32.935Z,3.97
2022-08-17T10:45:26.835Z,5.13
2022-08-17T10:48:05.033Z,5.90
2022-08-17T10:50:49.652Z,3.47
2022-08-17T10:53:50.637Z,5.30
2022-08-17T10:56:21.355Z,4.43
2022-08-17T10:58:54.068Z,4.17
2022-08-17T11:01:44.492Z,4.07
2022-08-17T11:04:17.649Z,3.87
2022-08-17T11:07:05.751Z,8.40
2022-08-17T11:09:55.153Z,5.33
2022-08-17T11:12:33.885Z,4.47
2022-08-17T11:15:41.887Z,4.32
2022-08-17T11:18:33.028Z,3.78
2022-08-17T11:21:23.255Z,4.13
2022-08-17T11:24:14.844Z,3.53
2022-08-17T11:26:48.869Z,4.28
2022-08-17T11:29:35.496Z,5.00
2022-08-17T11:32:13.526Z,4.75
2022-08-17T11:34:44.581Z,4.55
2022-08-17T11:37:29.695Z,6.38
2022-08-17T11:40:33.645Z,3.63
2022-08-17T11:43:07.972Z,3.33
2022-08-17T11:45:58.365Z,6.05
2022-08-17T11:49:08.220Z,3.53
2022-08-17T11:52:13.823Z,3.63
2022-08-17T11:54:45.368Z,8.15
2022-08-17T11:57:27.066Z,6.50
2022-08-17T12:00:12.711Z,6.80
2022-08-17T12:02:47.908Z,6.85
2022-08-17T12:05:16.932Z,9.90
2022-08-17T12:07:49.295Z,8.20
2022-08-17T12:10:21.535Z,6.25
2022-08-17T12:12:53.353Z,4.60
2022-08-17T12:15:29.317Z,5.05
2022-08-17T12:17:57.483Z,6.40
2022-08-17T12:20:28.032Z,5.65
2022-08-17T12:23:16.505Z,5.93
2022-08-17T12:26:11.454Z,9.63
2022-08-17T12:28:44.267Z,7.25
2022-08-17T12:31:25.930Z,4.30
2022-08-17T12:33:52.974Z,8.30
2022-08-17T12:36:24.881Z,5.07
2022-08-17T12:39:12.815Z,6.15
2022-08-17T12:41:44.567Z,6.67
2022-08-17T12:44:12.299Z,4.10
2022-08-17T12:47:01.848Z,4.00
2022-08-17T12:49:37.476Z,6.47
2022-08-17T12:52:28.596Z,5.40
2022-08-17T12:55:00.197Z,4.90
2022-08-17T12:57:33.859Z,4.15
2022-08-17T13:00:10.264Z,4.10
2022-08-17T13:08:48.410Z,6.75
2022-08-17T13:14:10.086Z,3.40
2022-08-17T13:16:36.863Z,4.65
2022-08-17T13:19:13.063Z,4.93
2022-08-17T13:21:46.168Z,5.05
2022-08-17T13:24:13.923Z,12.60
2022-08-17T13:26:57.800Z,6.68
2022-08-17T13:29:40.143Z,6.22
2022-08-17T13:32:13.074Z,3.15
2022-08-17T13:35:12.013Z,3.50
2022-08-17T13:37:40.668Z,3.75
2022-08-17T13:40:10.076Z,6.97
2022-08-17T13:42:51.821Z,5.30
2022-08-17T13:45:38.846Z,4.75
2022-08-17T13:48:14.511Z,6.32
2022-08-17T13:50:41.216Z,6.07
2022-08-17T13:53:51.238Z,3.20
2022-08-17T13:56:38.250Z,4.88
2022-08-17T13:59:13.074Z,3.95
2022-08-17T14:01:53.533Z,4.18
2022-08-17T14:04:31.703Z,3.13
2022-08-17T14:07:05.473Z,3.45
2022-08-17T14:09:37.335Z,3.97
2022-08-17T14:12:09.690Z,3.58
2022-08-17T14:14:37.118Z,3.88
2022-08-17T14:17:07.887Z,4.60
2022-08-17T14:19:34.941Z,4.45
2022-08-17T14:22:02.209Z,4.60
2022-08-17T14:24:32.163Z,7.70
2022-08-17T14:27:00.504Z,5.22
2022-08-17T14:29:28.994Z,6.95
2022-08-17T14:31:59.380Z,5.65
2022-08-17T14:34:26.040Z,4.47
2022-08-17T14:36:52.781Z,7.90
2022-08-17T14:39:20.161Z,6.30
2022-08-17T14:41:47.256Z,8.23
2022-08-17T14:44:14.005Z,6.75
2022-08-17T14:46:43.060Z,3.60
2022-08-17T14:49:11.880Z,7.60
2022-08-17T14:51:44.320Z,5.68
2022-08-17T14:54:25.599Z,3.88
2022-08-17T14:57:14.816Z,7.35
2022-08-17T14:59:46.281Z,4.07
2022-08-17T15:02:13.557Z,3.33
2022-08-17T15:04:45.342Z,4.70
2022-08-17T15:07:12.407Z,4.28
2022-08-17T15:13:27.615Z,3.50
2022-08-17T15:15:54.681Z,4.75
2022-08-17T15:18:21.603Z,3.90
2022-08-17T15:20:50.131Z,5.30
2022-08-17T15:23:19.700Z,2.88
2022-08-17T15:25:48.659Z,4.75
2022-08-17T15:28:16.100Z,4.13
2022-08-17T15:30:44.823Z,3.55
2022-08-17T15:33:16.760Z,5.75
2022-08-17T15:35:43.836Z,2.80
2022-08-17T15:38:13.447Z,2.30
2022-08-17T15:40:45.342Z,5.88
2022-08-17T15:43:15.974Z,5.13
2022-08-17T15:45:43.121Z,2.85
2022-08-17T15:48:10.104Z,6.53
2022-08-17T15:50:37.464Z,5.53
2022-08-17T15:53:04.948Z,3.50
2022-08-17T15:55:33.338Z,3.60
2022-08-17T15:58:00.460Z,5.05
2022-08-17T16:00:29.245Z,2.75
2022-08-17T16:03:44.388Z,6.75
2022-08-17T16:05:46.694Z,2.85
2022-08-17T16:08:18.476Z,12.05
2022-08-17T16:10:47.539Z,8.27
2022-08-17T16:13:17.141Z,5.38
2022-08-17T16:15:48.675Z,4.07
2022-08-17T16:18:25.610Z,2.38
2022-08-17T16:20:53.321Z,6.53
2022-08-17T16:23:20.321Z,3.40
2022-08-17T16:25:52.748Z,3.22
2022-08-17T16:28:21.901Z,3.63
2022-08-17T16:30:48.605Z,6.20
2022-08-17T16:33:16.737Z,4.65
2022-08-17T16:35:43.389Z,6.35
2022-08-17T16:38:10.940Z,4.60
2022-08-17T16:40:38.131Z,5.55
2022-08-17T16:43:10.537Z,5.40
2022-08-17T16:45:40.857Z,5.60
2022-08-17T16:48:09.253Z,6.28
2022-08-17T16:50:36.913Z,3.67
2022-08-17T16:53:16.232Z,5.20
2022-08-17T16:55:49.663Z,8.63
2022-08-17T16:58:16.381Z,3.97
2022-08-17T17:00:45.121Z,9.07
2022-08-17T17:03:19.792Z,5.03
2022-08-17T17:06:39.984Z,6.97
2022-08-17T17:09:12.702Z,4.20
2022-08-17T17:11:43.613Z,2.60
2022-08-17T17:14:16.869Z,4.70
2022-08-17T17:16:48.820Z,3.33
2022-08-17T17:19:57.638Z,2.80
2022-08-17T17:22:30.179Z,3.40
2022-08-17T17:25:08.437Z,7.33
2022-08-17T17:27:59.848Z,2.60
2022-08-17T17:30:52.442Z,3.23
2022-08-17T17:33:36.104Z,4.93
2022-08-17T17:36:18.875Z,4.30
2022-08-17T17:38:52.918Z,5.10
2022-08-17T17:41:34.364Z,3.30
2022-08-17T17:44:12.313Z,5.70
2022-08-17T17:46:51.574Z,4.23
2022-08-17T17:49:18.850Z,4.10
2022-08-17T17:52:19.284Z,4.23
2022-08-17T17:55:07.559Z,3.00
2022-08-17T17:57:44.853Z,2.77
2022-08-17T18:00:21.846Z,3.63
2022-08-17T18:03:04.595Z,2.90
2022-08-17T18:05:36.866Z,3.27
2022-08-17T18:08:12.108Z,5.63
2022-08-17T18:10:41.589Z,6.50
2022-08-17T18:13:27.317Z,2.83
2022-08-17T18:15:54.462Z,3.17
2022-08-17T18:18:37.773Z,2.60
2022-08-17T18:21:19.554Z,2.37
2022-08-17T18:23:56.956Z,6.30
2022-08-17T18:26:32.887Z,3.37
2022-08-17T18:29:01.387Z,5.30
2022-08-17T18:31:28.012Z,3.17
2022-08-17T18:34:43.427Z,2.47
2022-08-17T18:37:05.079Z,5.37
2022-08-17T18:39:31.767Z,4.30
2022-08-17T18:42:03.612Z,4.13
2022-08-17T18:44:32.711Z,6.80
2022-08-17T18:47:16.720Z,5.03
2022-08-17T18:49:48.962Z,8.37
2022-08-17T18:52:21.538Z,4.67
2022-08-17T18:55:03.417Z,10.67
2022-08-17T18:57:34.932Z,8.30
2022-08-17T19:00:10.191Z,3.43
2022-08-17T19:02:53.532Z,9.97
2022-08-17T19:05:29.406Z,10.33
2022-08-17T19:08:19.274Z,4.53
2022-08-17T19:10:49.098Z,5.97
2022-08-17T19:13:24.576Z,20.40
2022-08-17T19:16:14.586Z,3.30
2022-08-17T19:19:01.854Z,2.50
2022-08-17T19:21:46.878Z,5.53
2022-08-17T19:24:26.473Z,5.30
2022-08-17T19:27:15.855Z,7.93
2022-08-17T19:30:05.370Z,4.77
2022-08-17T19:32:35.802Z,3.20
2022-08-17T19:35:04.528Z,7.67
2022-08-17T19:37:47.306Z,9.40
2022-08-17T19:40:51.817Z,11.13
2022-08-17T19:43:47.999Z,11.67
2022-08-17T19:46:26.025Z,10.53
2022-08-17T19:48:55.637Z,7.60
2022-08-17T19:51:50.666Z,9.60
2022-08-17T19:54:31.029Z,8.23
2022-08-17T19:57:27.409Z,8.80
2022-08-17T20:00:01.041Z,7.70
2022-08-17T20:03:06.171Z,6.50
2022-08-17T20:06:08.575Z,8.10
2022-08-17T20:08:29.744Z,6.73
2022-08-17T20:11:10.357Z,6.03
2022-08-17T20:13:40.845Z,3.90
2022-08-17T20:16:08.007Z,4.53
2022-08-17T20:18:43.957Z,4.80
2022-08-17T20:21:23.967Z,3.23
2022-08-17T20:24:02.139Z,5.37
2022-08-17T20:26:58.967Z,3.80
2022-08-17T20:29:40.219Z,5.93
2022-08-17T20:32:18.902Z,5.57
2022-08-17T20:34:47.290Z,5.07
2022-08-17T20:37:14.270Z,5.40
2022-08-17T20:39:45.035Z,3.53
2022-08-17T20:42:20.685Z,4.53
2022-08-17T20:44:53.970Z,5.93
2022-08-17T20:47:34.216Z,5.33
2022-08-17T20:50:00.836Z,5.33
2022-08-17T20:52:45.613Z,3.70
2022-08-17T20:55:34.110Z,4.60
2022-08-17T20:58:30.891Z,3.90
2022-08-17T21:00:57.692Z,4.53
2022-08-17T21:03:25.049Z,5.93
2022-08-17T21:06:17.104Z,6.30
2022-08-17T21:08:57.743Z,7.03
2022-08-17T21:11:56.975Z,6.87
2022-08-17T21:14:36.730Z,6.13
2022-08-17T21:17:29.742Z,3.60
2022-08-17T21:20:32.604Z,4.33
2022-08-17T21:23:11.261Z,6.93
2022-08-17T21:25:51.929Z,4.87
2022-08-17T21:28:21.371Z,3.67
2022-08-17T21:30:56.738Z,4.37
2022-08-17T21:33:25.328Z,3.97
2022-08-17T21:36:16.830Z,4.60
2022-08-17T21:38:53.399Z,7.50
2022-08-17T21:41:28.113Z,3.43
2022-08-17T21:44:05.567Z,5.10
2022-08-17T21:46:37.659Z,4.90
2022-08-17T21:49:13.914Z,4.80
2022-08-17T21:51:50.023Z,4.50
2022-08-17T21:54:41.770Z,5.40
2022-08-17T21:57:17.589Z,6.63
2022-08-17T21:59:44.662Z,3.50
2022-08-17T22:02:51.408Z,6.27
2022-08-17T22:05:29.987Z,5.23
2022-08-17T22:08:02.611Z,4.67
2022-08-17T22:10:37.754Z,6.10
2022-08-17T22:13:16.538Z,3.63
2022-08-17T22:15:49.699Z,3.97
2022-08-17T22:18:27.303Z,3.30
2022-08-17T22:20:57.020Z,3.70
2022-08-17T22:23:42.157Z,5.90
2022-08-17T22:26:12.766Z,5.27
2022-08-17T22:28:50.439Z,5.73
2022-08-17T22:31:28.810Z,6.57
2022-08-17T22:33:59.859Z,3.90
2022-08-17T22:36:34.514Z,4.97
2022-08-17T22:39:07.500Z,4.20
2022-08-17T22:41:54.384Z,5.17
2022-08-17T22:44:26.336Z,4.70
2022-08-17T22:47:11.270Z,4.80
2022-08-17T22:49:54.132Z,3.40
2022-08-17T22:53:00.536Z,5.40
2022-08-17T22:55:48.310Z,3.37
2022-08-17T22:58:42.866Z,5.97
2022-08-17T23:01:32.514Z,4.17
2022-08-17T23:04:02.557Z,5.37
2022-08-17T23:06:29.782Z,2.63
2022-08-17T23:08:57.731Z,4.23
2022-08-17T23:11:36.955Z,4.93
2022-08-17T23:14:15.757Z,5.67
2022-08-17T23:16:42.714Z,3.37
2022-08-17T23:19:15.637Z,3.50
2022-08-17T23:21:46.232Z,4.33
2022-08-17T23:24:22.880Z,4.10
2022-08-17T23:26:49.710Z,3.80
2022-08-17T23:29:16.686Z,6.00
2022-08-17T23:31:43.485Z,7.57
2022-08-17T23:34:13.270Z,4.53
2022-08-17T23:36:39.934Z,3.63
2022-08-17T23:39:07.463Z,3.03
2022-08-17T23:41:38.610Z,4.37
2022-08-17T23:44:06.470Z,4.23
2022-08-17T23:46:34.558Z,3.30
2022-08-17T23:49:01.439Z,6.27
2022-08-17T23:51:31.811Z,6.83
2022-08-17T23:54:08.187Z,8.47
2022-08-17T23:56:38.507Z,8.90
2022-08-17T23:59:05.631Z,4.87
